createdAt,value
2022-09-05T00:02:04.929Z,20.10
2022-09-05T00:04:40.606Z,20.10
2022-09-05T00:07:59.702Z,20.10
2022-09-05T00:11:41.254Z,19.90
2022-09-05T00:14:00.792Z,20.20
2022-09-05T00:17:12.694Z,20.40
2022-09-05T00:24:26.945Z,21.00
2022-09-05T00:24:29.812Z,20.00
2022-09-05T00:26:49.936Z,19.80
2022-09-05T00:31:50.833Z,19.70
2022-09-05T00:33:28.656Z,19.90
2022-09-05T00:36:17.283Z,19.90
2022-09-05T00:38:57.734Z,19.80
2022-09-05T00:41:25.930Z,19.70
2022-09-05T00:43:57.279Z,21.70
2022-09-05T00:46:33.676Z,19.70
2022-09-05T00:49:53.654Z,19.50
2022-09-05T00:52:35.728Z,20.00
2022-09-05T00:55:39.110Z,19.70
2022-09-05T00:58:37.409Z,19.90
2022-09-05T01:01:26.561Z,19.70
2022-09-05T01:04:45.836Z,20.60
2022-09-05T01:07:27.498Z,19.70
2022-09-05T01:10:38.754Z,20.50
2022-09-05T01:13:33.032Z,19.40
2022-09-05T01:16:23.578Z,19.50
2022-09-05T01:19:29.792Z,19.40
2022-09-05T01:22:34.310Z,19.50
2022-09-05T01:25:27.348Z,19.50
2022-09-05T01:29:14.072Z,19.50
2022-09-05T01:31:52.415Z,19.40
2022-09-05T01:34:31.838Z,19.30
2022-09-05T01:37:46.306Z,21.30
2022-09-05T01:40:29.658Z,19.30
2022-09-05T01:44:19.697Z,19.30
2022-09-05T01:47:29.470Z,18.40
2022-09-05T01:50:28.253Z,19.20
2022-09-05T01:53:45.920Z,19.30
2022-09-05T01:56:41.416Z,19.30
2022-09-05T01:59:37.499Z,19.30
2022-09-05T02:02:32.598Z,19.10
2022-09-05T02:06:02.071Z,19.10
2022-09-05T02:09:01.011Z,19.10
2022-09-05T02:11:48.508Z,19.10
2022-09-05T02:14:57.490Z,19.20
2022-09-05T02:17:55.135Z,19.10
2022-09-05T02:20:35.947Z,19.00
2022-09-05T02:23:24.762Z,19.00
2022-09-05T02:26:26.870Z,19.40
2022-09-05T02:29:05.604Z,18.90
2022-09-05T02:31:44.296Z,19.00
2022-09-05T02:34:26.141Z,18.80
2022-09-05T02:38:33.082Z,18.90
2022-09-05T02:45:05.938Z,18.80
2022-09-05T02:45:19.503Z,18.90
2022-09-05T02:46:36.720Z,18.80
2022-09-05T02:52:21.204Z,18.80
2022-09-05T02:57:25.031Z,18.80
2022-09-05T02:57:35.236Z,18.80
2022-09-05T02:59:09.163Z,18.90
2022-09-05T03:02:25.947Z,18.70
2022-09-05T03:05:25.772Z,18.60
2022-09-05T03:08:22.633Z,18.60
2022-09-05T03:11:02.150Z,18.70
2022-09-05T03:14:46.905Z,18.60
2022-09-05T03:17:38.624Z,18.50
2022-09-05T03:20:42.444Z,18.60
2022-09-05T03:23:56.048Z,18.50
2022-09-05T03:27:07.580Z,18.60
2022-09-05T03:30:02.135Z,18.30
2022-09-05T03:32:49.581Z,18.50
2022-09-05T03:35:49.886Z,18.40
2022-09-05T03:39:12.782Z,18.50
2022-09-05T03:42:15.205Z,18.50
2022-09-05T03:44:48.632Z,18.30
2022-09-05T03:47:48.872Z,18.30
2022-09-05T03:56:58.261Z,18.30
2022-09-05T03:57:20.406Z,20.80
2022-09-05T03:58:16.692Z,18.40
2022-09-05T04:01:11.038Z,18.30
2022-09-05T04:08:19.248Z,18.20
2022-09-05T04:08:26.185Z,18.10
2022-09-05T04:09:59.285Z,18.10
2022-09-05T04:13:03.869Z,18.00
2022-09-05T04:15:42.101Z,18.20
2022-09-05T04:18:32.924Z,18.20
2022-09-05T04:21:20.365Z,18.10
2022-09-05T04:24:29.227Z,18.10
2022-09-05T04:27:27.792Z,18.10
2022-09-05T04:30:31.210Z,18.30
2022-09-05T04:33:11.483Z,18.00
2022-09-05T04:36:17.788Z,18.20
2022-09-05T04:38:46.738Z,17.90
2022-09-05T04:41:16.582Z,17.80
2022-09-05T04:43:49.615Z,18.10
2022-09-05T04:46:25.220Z,18.10
2022-09-05T04:49:07.091Z,16.90
2022-09-05T04:52:26.880Z,18.00
2022-09-05T04:55:20.162Z,17.90
2022-09-05T04:58:55.557Z,18.00
2022-09-05T05:06:08.228Z,18.00
2022-09-05T05:06:14.276Z,17.90
2022-09-05T05:07:23.858Z,17.90
2022-09-05T05:10:37.596Z,17.90
2022-09-05T05:17:54.384Z,17.80
2022-09-05T05:18:12.955Z,17.80
2022-09-05T05:19:18.610Z,17.80
2022-09-05T05:22:03.762Z,17.80
2022-09-05T05:24:36.517Z,18.10
2022-09-05T05:27:21.440Z,17.80
2022-09-05T05:30:04.690Z,17.70
2022-09-05T05:32:46.040Z,17.90
2022-09-05T05:35:19.200Z,17.40
2022-09-05T05:38:13.279Z,17.70
2022-09-05T05:41:05.634Z,17.60
2022-09-05T05:43:45.524Z,17.70
2022-09-05T05:46:29.282Z,17.70
2022-09-05T05:49:28.711Z,17.80
2022-09-05T05:52:30.880Z,17.80
2022-09-05T05:55:14.055Z,17.70
2022-09-05T05:58:22.040Z,17.70
2022-09-05T06:00:55.023Z,17.50
2022-09-05T06:04:24.391Z,17.70
2022-09-05T06:07:14.939Z,17.60
2022-09-05T06:14:52.811Z,17.60
2022-09-05T06:15:00.801Z,17.70
2022-09-05T06:16:45.774Z,17.70
2022-09-05T06:19:53.187Z,17.70
2022-09-05T06:22:49.492Z,17.50
2022-09-05T06:25:37.867Z,17.30
2022-09-05T06:28:35.654Z,17.00
2022-09-05T06:31:34.780Z,16.80
2022-09-05T06:35:00.095Z,17.00
2022-09-05T06:37:56.337Z,17.20
2022-09-05T06:40:42.224Z,17.10
2022-09-05T06:44:15.290Z,17.50
2022-09-05T06:47:05.793Z,17.20
2022-09-05T06:50:26.910Z,17.30
2022-09-05T06:53:39.214Z,17.30
2022-09-05T06:56:26.617Z,17.20
2022-09-05T06:59:38.103Z,17.20
2022-09-05T07:02:27.288Z,17.30
2022-09-05T07:05:38.948Z,17.30
2022-09-05T07:08:34.144Z,17.50
2022-09-05T07:11:15.928Z,17.20
2022-09-05T07:14:13.665Z,17.40
2022-09-05T07:17:10.002Z,17.40
2022-09-05T07:19:59.220Z,17.40
2022-09-05T07:23:47.810Z,17.40
2022-09-05T07:25:56.045Z,17.80
2022-09-05T07:28:29.606Z,17.50
2022-09-05T07:31:04.247Z,17.60
2022-09-05T07:33:32.102Z,16.40
2022-09-05T07:36:23.661Z,17.30
2022-09-05T07:39:12.225Z,17.10
2022-09-05T07:41:52.467Z,17.60
2022-09-05T07:44:59.002Z,16.90
2022-09-05T07:47:35.502Z,17.70
2022-09-05T07:53:25.887Z,17.40
2022-09-05T07:57:06.155Z,17.10
2022-09-05T07:57:09.517Z,17.50
2022-09-05T07:58:51.674Z,17.50
2022-09-05T08:01:22.533Z,17.90
2022-09-05T08:03:56.260Z,17.70
2022-09-05T08:07:11.889Z,17.80
2022-09-05T08:10:05.968Z,17.70
2022-09-05T08:12:16.327Z,17.90
2022-09-05T08:15:14.185Z,18.40
2022-09-05T08:17:57.492Z,18.30
2022-09-05T08:20:58.983Z,18.60
2022-09-05T08:23:40.837Z,19.10
2022-09-05T08:26:37.617Z,18.60
2022-09-05T08:29:16.812Z,17.70
2022-09-05T08:32:10.871Z,18.70
2022-09-05T08:34:56.715Z,19.10
2022-09-05T08:37:27.005Z,18.50
2022-09-05T08:40:10.553Z,18.80
2022-09-05T08:46:36.615Z,19.10
2022-09-05T08:46:43.403Z,19.20
2022-09-05T08:49:32.374Z,19.90
2022-09-05T08:52:28.836Z,18.50
2022-09-05T08:55:37.062Z,19.00
2022-09-05T08:58:17.721Z,18.80
2022-09-05T09:01:00.274Z,20.50
2022-09-05T09:04:11.451Z,20.90
2022-09-05T09:07:27.856Z,19.50
2022-09-05T09:10:08.655Z,19.90
2022-09-05T09:12:56.662Z,19.90
2022-09-05T09:16:04.740Z,19.80
2022-09-05T09:19:02.140Z,20.00
2022-09-05T09:21:58.249Z,20.30
2022-09-05T09:24:41.461Z,20.50
2022-09-05T09:28:22.610Z,21.00
2022-09-05T09:30:35.749Z,21.50
2022-09-05T09:33:06.204Z,21.40
2022-09-05T09:35:44.713Z,22.30
2022-09-05T09:38:48.810Z,23.00
2022-09-05T09:41:33.973Z,22.20
2022-09-05T09:44:25.189Z,21.70
2022-09-05T09:46:53.336Z,21.90
2022-09-05T09:50:38.117Z,22.00
2022-09-05T09:53:59.923Z,22.30
2022-09-05T09:57:03.577Z,21.30
2022-09-05T10:00:21.176Z,21.30
2022-09-05T10:04:30.988Z,21.80
2022-09-05T10:10:44.656Z,22.20
2022-09-05T10:10:52.851Z,22.40
2022-09-05T10:13:20.435Z,22.20
2022-09-05T10:16:26.166Z,23.60
2022-09-05T10:22:44.185Z,22.60
2022-09-05T10:25:40.408Z,24.40
2022-09-05T10:28:40.148Z,24.50
2022-09-05T10:31:55.568Z,24.20
2022-09-05T10:35:17.697Z,23.90
2022-09-05T10:37:12.568Z,24.00
2022-09-05T10:39:50.976Z,24.20
2022-09-05T10:42:39.896Z,24.70
2022-09-05T10:45:39.533Z,24.90
2022-09-05T10:48:16.566Z,22.10
2022-09-05T10:51:07.700Z,22.70
2022-09-05T10:53:50.588Z,23.80
2022-09-05T10:56:26.145Z,22.90
2022-09-05T11:02:16.413Z,23.90
2022-09-05T11:02:27.304Z,23.60
2022-09-05T11:05:31.005Z,24.00
2022-09-05T11:08:43.198Z,24.50
2022-09-05T11:11:28.401Z,25.40
2022-09-05T11:14:27.039Z,25.50
2022-09-05T11:17:14.063Z,26.00
2022-09-05T11:20:14.417Z,26.10
2022-09-05T11:22:47.729Z,26.30
2022-09-05T11:25:39.662Z,25.10
2022-09-05T11:28:19.046Z,26.50
2022-09-05T11:30:53.488Z,26.90
2022-09-05T11:39:47.068Z,28.60
2022-09-05T11:40:02.803Z,26.30
2022-09-05T11:41:50.936Z,25.80
2022-09-05T11:44:44.840Z,25.50
2022-09-05T11:47:28.111Z,27.20
2022-09-05T11:51:03.676Z,25.60
2022-09-05T11:54:17.399Z,26.30
2022-09-05T11:57:32.908Z,25.60
2022-09-05T12:00:31.213Z,24.60
2022-09-05T12:03:58.261Z,24.90
2022-09-05T12:06:56.442Z,23.30
2022-09-05T12:10:43.593Z,23.00
2022-09-05T12:13:46.281Z,25.80
2022-09-05T12:16:49.436Z,26.70
2022-09-05T12:19:51.996Z,26.90
2022-09-05T12:22:36.415Z,27.70
2022-09-05T12:27:36.693Z,27.30
2022-09-05T12:29:28.176Z,26.30
2022-09-05T12:32:19.661Z,25.10
2022-09-05T12:36:07.376Z,26.70
2022-09-05T12:40:19.743Z,27.70
2022-09-05T12:41:37.435Z,27.50
2022-09-05T12:44:38.836Z,25.50
2022-09-05T12:46:10.926Z,24.00
2022-09-05T12:49:12.854Z,25.10
2022-09-05T12:52:02.428Z,26.90
2022-09-05T12:54:57.060Z,26.90
2022-09-05T13:00:45.263Z,24.90
2022-09-05T13:03:04.084Z,25.30
2022-09-05T13:03:53.418Z,24.90
2022-09-05T13:06:47.048Z,28.00
2022-09-05T13:09:16.560Z,28.80
2022-09-05T13:14:50.820Z,29.10
2022-09-05T13:15:23.145Z,29.20
2022-09-05T13:18:12.957Z,29.90
2022-09-05T13:20:51.510Z,29.30
2022-09-05T13:24:12.237Z,29.30
2022-09-05T13:26:50.177Z,29.80
2022-09-05T13:29:29.482Z,30.30
2022-09-05T13:36:43.430Z,30.80
2022-09-05T13:38:12.701Z,30.60
2022-09-05T13:38:56.094Z,31.10
2022-09-05T13:41:46.450Z,30.80
2022-09-05T13:44:26.354Z,30.10
2022-09-05T13:47:29.676Z,29.50
2022-09-05T13:50:28.712Z,28.10
2022-09-05T13:53:18.942Z,25.80
2022-09-05T13:55:56.748Z,25.30
2022-09-05T13:58:51.081Z,26.40
2022-09-05T14:02:19.913Z,27.00
2022-09-05T14:05:05.849Z,27.40
2022-09-05T14:08:20.621Z,28.00
2022-09-05T14:11:08.581Z,27.50
2022-09-05T14:14:09.277Z,28.00
2022-09-05T14:16:53.899Z,28.40
2022-09-05T14:19:43.274Z,28.80
2022-09-05T14:22:28.144Z,26.80
2022-09-05T14:24:58.255Z,25.70
2022-09-05T14:27:32.466Z,25.50
2022-09-05T14:30:38.456Z,26.80
2022-09-05T14:37:41.494Z,26.20
2022-09-05T14:37:46.137Z,28.10
2022-09-05T14:39:47.855Z,25.20
2022-09-05T14:42:51.025Z,26.00
2022-09-05T14:45:42.775Z,27.40
2022-09-05T14:48:43.515Z,28.00
2022-09-05T14:51:39.243Z,27.60
2022-09-05T15:02:38.942Z,27.70
2022-09-05T15:02:50.549Z,26.90
2022-09-05T15:03:04.992Z,26.30
2022-09-05T15:05:43.138Z,26.20
2022-09-05T15:09:58.634Z,26.30
2022-09-05T15:12:18.701Z,25.40
2022-09-05T15:14:12.160Z,25.30
2022-09-05T15:16:45.632Z,25.00
2022-09-05T15:20:08.740Z,25.60
2022-09-05T15:22:41.894Z,25.60
2022-09-05T15:25:19.942Z,26.60
2022-09-05T15:27:49.803Z,27.30
2022-09-05T15:30:36.219Z,28.00
2022-09-05T15:33:25.823Z,28.10
2022-09-05T15:35:54.908Z,27.80
2022-09-05T15:38:30.115Z,27.40
2022-09-05T15:41:13.414Z,26.60
2022-09-05T15:43:59.720Z,26.30
2022-09-05T15:46:59.628Z,26.80
2022-09-05T15:49:42.977Z,26.80
2022-09-05T15:52:27.314Z,27.60
2022-09-05T15:54:59.696Z,26.40
2022-09-05T15:57:31.783Z,26.30
2022-09-05T16:00:07.914Z,26.30
2022-09-05T16:02:55.440Z,27.60
2022-09-05T16:10:31.447Z,26.30
2022-09-05T16:10:40.128Z,26.70
2022-09-05T16:12:09.058Z,27.20
2022-09-05T16:14:39.508Z,27.40
2022-09-05T16:23:15.297Z,26.40
2022-09-05T16:23:23.412Z,27.60
2022-09-05T16:24:11.496Z,26.80
2022-09-05T16:26:47.724Z,26.90
2022-09-05T16:29:27.018Z,27.70
2022-09-05T16:32:22.826Z,27.00
2022-09-05T16:35:07.448Z,27.10
2022-09-05T16:37:49.136Z,26.60
2022-09-05T16:40:29.635Z,26.20
2022-09-05T16:43:20.603Z,26.70
2022-09-05T16:46:08.571Z,27.70
2022-09-05T16:49:12.225Z,26.30
2022-09-05T16:51:50.386Z,25.90
2022-09-05T16:54:48.730Z,26.00
2022-09-05T16:57:22.681Z,25.90
2022-09-05T16:59:50.401Z,26.00
2022-09-05T17:02:58.046Z,25.80
2022-09-05T17:05:39.683Z,25.50
2022-09-05T17:08:19.375Z,25.60
2022-09-05T17:11:03.592Z,25.60
2022-09-05T17:13:48.820Z,25.50
2022-09-05T17:16:47.386Z,25.50
2022-09-05T17:19:22.222Z,25.40
2022-09-05T17:24:59.603Z,25.40
2022-09-05T17:29:17.140Z,25.10
2022-09-05T17:29:38.123Z,25.40
2022-09-05T17:33:43.454Z,25.90
2022-09-05T17:36:41.349Z,25.60
2022-09-05T17:39:49.263Z,26.10
2022-09-05T17:42:36.309Z,25.20
2022-09-05T17:45:29.926Z,25.80
2022-09-05T17:47:57.997Z,25.50
2022-09-05T17:50:33.118Z,25.50
2022-09-05T17:55:54.904Z,25.20
2022-09-05T17:58:28.321Z,25.40
2022-09-05T18:01:27.158Z,25.00
2022-09-05T18:04:16.611Z,25.10
2022-09-05T18:06:52.682Z,25.10
2022-09-05T18:09:40.090Z,24.70
2022-09-05T18:13:11.621Z,25.00
2022-09-05T18:15:31.765Z,24.70
2022-09-05T18:18:08.614Z,25.00
2022-09-05T18:24:07.974Z,24.80
2022-09-05T18:26:44.986Z,24.80
2022-09-05T18:32:45.636Z,24.70
2022-09-05T18:35:37.106Z,24.40
2022-09-05T18:38:12.777Z,24.50
2022-09-05T18:41:09.165Z,24.40
2022-09-05T18:44:12.042Z,24.50
2022-09-05T18:46:49.439Z,24.50
2022-09-05T18:50:21.509Z,24.00
2022-09-05T18:52:28.934Z,24.30
2022-09-05T18:56:09.230Z,24.30
2022-09-05T18:58:09.374Z,24.60
2022-09-05T19:00:44.466Z,24.40
2022-09-05T19:03:19.045Z,24.20
2022-09-05T19:06:35.142Z,24.20
2022-09-05T19:08:55.575Z,23.90
2022-09-05T19:11:57.828Z,24.00
2022-09-05T19:14:55.660Z,24.00
2022-09-05T19:17:34.607Z,24.30
2022-09-05T19:20:30.990Z,24.10
2022-09-05T19:23:11.272Z,24.00
2022-09-05T19:25:45.612Z,24.10
2022-09-05T19:36:48.994Z,24.10
2022-09-05T19:36:54.346Z,24.00
2022-09-05T19:37:25.552Z,24.00
2022-09-05T19:37:30.212Z,23.80
2022-09-05T19:47:27.074Z,23.80
2022-09-05T19:47:42.611Z,23.90
2022-09-05T19:47:50.282Z,23.90
2022-09-05T19:48:35.242Z,23.80
2022-09-05T19:51:17.569Z,23.80
2022-09-05T19:54:04.867Z,23.80
2022-09-05T19:56:44.883Z,23.40
2022-09-05T19:59:24.094Z,24.10
2022-09-05T20:01:53.090Z,23.60
2022-09-05T20:04:21.427Z,23.50
2022-09-05T20:06:50.433Z,23.80
2022-09-05T20:09:24.109Z,24.40
2022-09-05T20:11:59.856Z,24.50
2022-09-05T20:14:36.760Z,23.40
2022-09-05T20:17:30.076Z,23.40
2022-09-05T20:20:22.448Z,23.40
2022-09-05T20:22:52.735Z,23.90
2022-09-05T20:25:39.939Z,23.10
2022-09-05T20:28:17.580Z,24.30
2022-09-05T20:30:54.121Z,23.50
2022-09-05T20:33:36.942Z,21.90
2022-09-05T20:43:10.102Z,24.80
2022-09-05T20:43:19.345Z,23.50
2022-09-05T20:43:23.808Z,22.80
2022-09-05T20:44:50.366Z,23.20
2022-09-05T20:54:08.451Z,22.80
2022-09-05T20:54:19.246Z,23.10
2022-09-05T20:54:19.415Z,23.30
2022-09-05T20:56:22.503Z,23.00
2022-09-05T20:58:51.290Z,21.50
2022-09-05T21:01:23.395Z,23.10
2022-09-05T21:04:04.067Z,22.40
2022-09-05T21:06:34.770Z,23.10
2022-09-05T21:09:30.057Z,23.00
2022-09-05T21:11:59.891Z,23.00
2022-09-05T21:14:29.694Z,22.90
2022-09-05T21:17:15.134Z,22.80
2022-09-05T21:19:53.672Z,22.60
2022-09-05T21:22:21.293Z,23.00
2022-09-05T21:25:08.590Z,22.70
2022-09-05T21:30:23.069Z,22.90
2022-09-05T21:33:01.031Z,22.60
2022-09-05T21:35:35.212Z,22.80
2022-09-05T21:38:02.850Z,22.10
2022-09-05T21:40:29.976Z,24.20
2022-09-05T21:47:44.286Z,22.70
2022-09-05T21:47:44.955Z,22.80
2022-09-05T21:48:36.843Z,22.70
2022-09-05T21:51:12.964Z,22.10
2022-09-05T21:59:22.514Z,22.50
2022-09-05T21:59:30.182Z,22.30
2022-09-05T21:59:46.128Z,22.50
2022-09-05T22:02:16.394Z,22.10
2022-09-05T22:04:43.692Z,22.50
2022-09-05T22:07:20.294Z,22.50
2022-09-05T22:09:59.132Z,22.40
2022-09-05T22:12:31.390Z,22.40
2022-09-05T22:15:05.957Z,22.40
2022-09-05T22:17:47.199Z,22.40
2022-09-05T22:20:17.445Z,22.40
2022-09-05T22:22:45.280Z,24.20
2022-09-05T22:25:29.118Z,24.50
2022-09-05T22:28:19.409Z,21.90
2022-09-05T22:30:46.449Z,22.30
2022-09-05T22:33:13.554Z,21.80
2022-09-05T22:35:41.100Z,22.30
2022-09-05T22:38:16.421Z,22.30
2022-09-05T22:40:46.404Z,22.20
2022-09-05T22:43:14.856Z,23.70
2022-09-05T22:45:41.913Z,22.20
2022-09-05T22:48:14.545Z,22.10
2022-09-05T22:50:42.846Z,21.70
2022-09-05T22:53:10.485Z,22.10
2022-09-05T22:55:41.354Z,21.20
2022-09-05T22:58:12.460Z,22.10
2022-09-05T23:00:39.513Z,22.40
2022-09-05T23:03:07.824Z,22.00
2022-09-05T23:05:35.226Z,21.60
2022-09-05T23:08:04.174Z,21.90
2022-09-05T23:10:32.060Z,22.00
2022-09-05T23:12:59.444Z,21.90
2022-09-05T23:15:26.713Z,22.00
2022-09-05T23:17:59.513Z,21.80
2022-09-05T23:20:29.824Z,22.00
2022-09-05T23:22:57.144Z,23.00
2022-09-05T23:25:24.708Z,22.10
2022-09-05T23:27:51.897Z,21.60
2022-09-05T23:30:18.987Z,21.60
2022-09-05T23:32:51.440Z,21.70
2022-09-05T23:35:19.375Z,21.60
2022-09-05T23:37:48.320Z,21.80
2022-09-05T23:40:20.059Z,21.80
2022-09-05T23:42:55.605Z,21.70
2022-09-05T23:45:24.076Z,21.50
2022-09-05T23:47:51.926Z,21.60
2022-09-05T23:50:19.818Z,22.20
2022-09-05T23:52:47.724Z,21.30
2022-09-05T23:55:18.055Z,21.60
2022-09-05T23:57:46.279Z,21.60
